Andersonville, Georgia
Current Conditions -  °F | °C
As of 6:55 PM on Sunday 23 Nov 2014 (Local Time) from KACJ Reporting Station
Thunderstorm Thunderstorm  
Wind Chill: 17°   Ceiling: 1300
Heat Index: 17°   Visibility: 10mi
Dew Point: 17°   Wind: 10mph
Humidity: 100%   Direction: 200°SSW
Pressure: 29.78"   Gusts: NA
Location:  32.2°N, 84.14°W
Report Text: KACJ 232355Z AUTO 20009KT 10SM VCTS SCT010 BKN013 OVC029 17/17 A2978 RMK AO2 LTG DSNT S AND SW
Loading
Personal Weather Stations






























Interactive Weather Map New forecast layout! Learn more

10-Day Weather Forecast

Advertisements
Track Severe Weather on mobile